createdAt,value
2018-05-18T00:01:07.047Z,69.93
2018-05-18T00:03:33.370Z,69.84
2018-05-18T00:05:59.734Z,70.05
2018-05-18T00:08:26.050Z,70.44
2018-05-18T00:10:52.369Z,70.94
2018-05-18T00:13:18.705Z,70.52
2018-05-18T00:15:45.047Z,70.49
2018-05-18T00:18:11.416Z,70.51
2018-05-18T00:20:45.591Z,69.95
2018-05-18T00:23:11.879Z,70.52
2018-05-18T00:25:38.208Z,71.92
2018-05-18T00:28:04.538Z,71.58
2018-05-18T00:30:30.904Z,71.52
2018-05-18T00:32:57.197Z,71.91
2018-05-18T00:35:23.532Z,72.05
2018-05-18T00:37:49.831Z,71.66
2018-05-18T00:40:16.121Z,72.14
2018-05-18T00:42:42.418Z,71.70
2018-05-18T00:45:08.772Z,71.81
2018-05-18T00:47:35.117Z,72.13
2018-05-18T00:50:01.417Z,72.01
2018-05-18T00:52:27.746Z,72.48
2018-05-18T00:54:54.773Z,72.21
2018-05-18T00:57:21.875Z,72.84
2018-05-18T00:59:48.211Z,72.46
2018-05-18T01:02:14.537Z,72.43
2018-05-18T01:04:40.943Z,72.52
2018-05-18T01:07:07.277Z,72.54
2018-05-18T01:09:33.598Z,72.89
2018-05-18T01:12:00.690Z,72.65
2018-05-18T01:14:27.031Z,72.79
2018-05-18T01:16:53.391Z,72.37
2018-05-18T01:19:19.777Z,72.42
2018-05-18T01:21:46.102Z,72.31
2018-05-18T01:24:12.489Z,72.20
2018-05-18T01:26:39.587Z,73.04
2018-05-18T01:29:05.954Z,72.82
2018-05-18T01:31:32.279Z,72.98
2018-05-18T01:33:58.606Z,72.90
2018-05-18T01:36:24.941Z,73.00
2018-05-18T01:38:51.245Z,73.21
2018-05-18T01:41:17.520Z,73.07
2018-05-18T01:43:44.622Z,73.12
2018-05-18T01:46:10.908Z,73.50
2018-05-18T01:48:38.002Z,73.67
2018-05-18T01:51:04.341Z,74.09
2018-05-18T01:53:30.659Z,74.44
2018-05-18T01:55:57.014Z,74.79
2018-05-18T01:58:23.390Z,74.66
2018-05-18T02:00:50.474Z,74.27
2018-05-18T02:03:16.830Z,74.08
2018-05-18T02:05:43.170Z,73.82
2018-05-18T02:08:09.474Z,74.36
2018-05-18T02:10:36.249Z,74.32
2018-05-18T02:13:02.615Z,74.27
2018-05-18T02:15:28.980Z,74.49
2018-05-18T02:17:55.299Z,74.31
2018-05-18T02:20:21.650Z,74.26
2018-05-18T02:22:47.992Z,74.54
2018-05-18T02:25:14.330Z,74.65
2018-05-18T02:27:40.670Z,74.63
2018-05-18T02:30:07.000Z,74.58
2018-05-18T02:32:34.088Z,74.29
2018-05-18T02:35:00.415Z,74.61
2018-05-18T02:37:26.743Z,74.77
2018-05-18T02:39:53.029Z,75.17
2018-05-18T02:42:19.371Z,75.52
2018-05-18T02:44:45.746Z,76.35
2018-05-18T02:47:12.054Z,76.37
2018-05-18T02:49:39.185Z,76.55
2018-05-18T02:52:05.490Z,76.88
2018-05-18T02:54:31.919Z,76.70
2018-05-18T02:56:58.276Z,76.79
2018-05-18T02:59:24.621Z,76.87
2018-05-18T03:01:51.337Z,76.84
2018-05-18T03:04:17.677Z,76.63
2018-05-18T03:06:44.057Z,76.24
2018-05-18T03:09:10.563Z,75.65
2018-05-18T03:11:36.837Z,75.69
2018-05-18T03:14:03.509Z,75.61
2018-05-18T03:16:29.840Z,75.82
2018-05-18T03:18:56.274Z,76.21
2018-05-18T03:21:22.661Z,76.12
2018-05-18T03:23:48.995Z,76.05
2018-05-18T03:26:15.383Z,75.77
2018-05-18T03:28:41.717Z,75.80
2018-05-18T03:31:08.058Z,76.11
2018-05-18T03:33:34.348Z,76.04
2018-05-18T03:36:00.660Z,75.71
2018-05-18T03:38:27.045Z,75.27
2018-05-18T03:40:53.406Z,75.07
2018-05-18T03:43:19.745Z,74.91
2018-05-18T03:45:46.047Z,74.51
2018-05-18T03:48:13.090Z,73.99
2018-05-18T03:50:39.354Z,73.03
2018-05-18T03:53:05.643Z,72.75
2018-05-18T03:55:32.014Z,73.03
2018-05-18T03:57:58.333Z,73.41
2018-05-18T04:00:25.387Z,72.21
2018-05-18T04:06:25.235Z,71.83
2018-05-18T04:08:52.597Z,70.76
2018-05-18T04:11:19.052Z,71.25
2018-05-18T04:13:45.333Z,71.79
2018-05-18T04:16:12.436Z,71.40
2018-05-18T04:18:38.827Z,70.23
2018-05-18T04:21:05.165Z,70.15
2018-05-18T04:23:31.529Z,70.07
2018-05-18T04:25:58.638Z,70.21
2018-05-18T04:28:24.991Z,69.68
2018-05-18T04:30:51.307Z,69.66
2018-05-18T04:33:17.636Z,69.11
2018-05-18T04:35:43.938Z,68.57
2018-05-18T04:38:11.002Z,67.75
2018-05-18T04:40:38.096Z,66.87
2018-05-18T04:43:04.361Z,67.72
2018-05-18T04:45:30.664Z,68.21
2018-05-18T04:47:57.115Z,67.75
2018-05-18T04:50:23.469Z,67.25
2018-05-18T04:52:50.516Z,67.04
2018-05-18T04:55:17.619Z,67.89
2018-05-18T04:57:43.986Z,68.24
2018-05-18T05:00:10.318Z,67.85
2018-05-18T05:02:37.437Z,67.16
2018-05-18T05:05:03.876Z,66.77
2018-05-18T05:07:30.259Z,66.44
2018-05-18T05:09:57.330Z,67.91
2018-05-18T05:12:23.687Z,67.33
2018-05-18T05:14:50.013Z,66.09
2018-05-18T05:17:16.336Z,65.65
2018-05-18T05:19:42.646Z,65.24
2018-05-18T05:22:09.083Z,65.28
2018-05-18T05:24:35.427Z,66.56
2018-05-18T05:27:01.821Z,65.89
2018-05-18T05:29:28.879Z,65.33
2018-05-18T05:31:56.011Z,64.77
2018-05-18T05:34:23.061Z,64.65
2018-05-18T05:36:50.112Z,63.25
2018-05-18T05:39:17.256Z,62.62
2018-05-18T05:41:45.364Z,63.06
2018-05-18T05:44:11.686Z,62.70
2018-05-18T05:46:38.012Z,61.62
2018-05-18T05:49:05.100Z,60.88
2018-05-18T05:51:31.415Z,61.33
2018-05-18T05:53:57.691Z,60.49
2018-05-18T05:56:24.081Z,60.78
2018-05-18T05:58:50.403Z,61.92
2018-05-18T06:01:16.829Z,61.10
2018-05-18T06:03:43.142Z,61.12
2018-05-18T06:06:10.393Z,61.37
2018-05-18T06:08:37.436Z,60.82
2018-05-18T06:11:04.505Z,61.91
2018-05-18T06:13:30.838Z,62.93
2018-05-18T06:15:57.197Z,62.33
2018-05-18T06:18:23.523Z,60.84
2018-05-18T06:20:49.871Z,59.85
2018-05-18T06:23:16.201Z,60.65
2018-05-18T06:25:42.555Z,59.83
2018-05-18T06:28:08.918Z,58.26
2018-05-18T06:30:35.266Z,58.26
2018-05-18T06:33:01.647Z,57.92
2018-05-18T06:35:27.980Z,57.97
2018-05-18T06:37:54.318Z,56.79
2018-05-18T06:40:20.642Z,57.42
2018-05-18T06:42:46.955Z,57.56
2018-05-18T06:45:13.219Z,57.55
2018-05-18T06:47:40.286Z,56.37
2018-05-18T06:50:06.646Z,54.90
2018-05-18T06:52:33.045Z,55.33
2018-05-18T06:54:59.374Z,55.46
2018-05-18T06:57:26.454Z,56.28
2018-05-18T06:59:52.786Z,57.73
2018-05-18T07:02:19.110Z,58.53
2018-05-18T07:04:45.439Z,57.08
2018-05-18T07:07:11.763Z,58.01
2018-05-18T07:09:38.082Z,58.21
2018-05-18T07:12:04.439Z,57.78
2018-05-18T07:14:30.818Z,56.93
2018-05-18T07:16:57.155Z,56.59
2018-05-18T07:19:23.483Z,56.68
2018-05-18T07:21:50.546Z,57.86
2018-05-18T07:24:17.635Z,58.29
2018-05-18T07:26:43.917Z,58.14
2018-05-18T07:29:10.335Z,57.27
2018-05-18T07:31:36.677Z,56.66
2018-05-18T07:34:03.048Z,54.78
2018-05-18T07:36:29.386Z,53.74
2018-05-18T07:38:55.751Z,52.72
2018-05-18T07:41:22.017Z,54.00
2018-05-18T07:43:49.119Z,53.38
2018-05-18T07:46:16.125Z,54.66
2018-05-18T07:48:42.478Z,54.65
2018-05-18T07:51:08.947Z,53.11
2018-05-18T07:53:35.375Z,52.83
2018-05-18T07:56:01.634Z,52.96
2018-05-18T07:58:28.686Z,51.69
2018-05-18T08:00:55.763Z,50.91
2018-05-18T08:03:22.083Z,50.20
2018-05-18T08:05:49.136Z,50.45
2018-05-18T08:08:15.498Z,49.52
2018-05-18T08:10:41.810Z,52.53
2018-05-18T08:13:08.149Z,51.91
2018-05-18T08:15:34.452Z,51.55
2018-05-18T08:18:00.807Z,52.61
2018-05-18T08:20:27.139Z,52.60
2018-05-18T08:22:53.548Z,53.68
2018-05-18T08:25:20.603Z,53.17
2018-05-18T08:27:47.044Z,52.83
2018-05-18T08:30:13.290Z,52.59
2018-05-18T08:32:39.576Z,51.21
2018-05-18T08:35:06.624Z,50.44
2018-05-18T08:37:33.666Z,49.32
2018-05-18T08:40:00.012Z,50.30
2018-05-18T08:42:27.059Z,48.86
2018-05-18T08:44:54.075Z,49.52
2018-05-18T08:47:20.422Z,48.53
2018-05-18T08:49:47.460Z,48.75
2018-05-18T08:52:13.803Z,50.67
2018-05-18T08:54:40.840Z,51.59
2018-05-18T08:57:07.152Z,50.07
2018-05-18T08:59:33.517Z,49.08
2018-05-18T09:02:00.590Z,49.88
2018-05-18T09:04:26.925Z,49.40
2018-05-18T09:06:53.219Z,49.53
2018-05-18T09:09:19.587Z,48.62
2018-05-18T09:11:45.929Z,47.90
2018-05-18T09:14:12.209Z,48.12
2018-05-18T09:16:39.996Z,47.71
2018-05-18T09:19:06.342Z,47.40
2018-05-18T09:21:32.813Z,48.92
2018-05-18T09:23:59.164Z,49.29
2018-05-18T09:26:25.544Z,49.88
2018-05-18T09:28:51.921Z,49.36
2018-05-18T09:31:18.331Z,48.59
2018-05-18T09:33:44.739Z,48.41
2018-05-18T09:36:11.071Z,48.17
2018-05-18T09:38:37.424Z,49.74
2018-05-18T09:41:03.797Z,49.22
2018-05-18T09:43:30.159Z,49.10
2018-05-18T09:45:57.204Z,48.10
2018-05-18T09:48:24.231Z,49.29
2018-05-18T09:50:51.287Z,48.06
2018-05-18T09:53:18.355Z,45.92
2018-05-18T09:55:44.822Z,45.07
2018-05-18T09:58:11.175Z,45.95
2018-05-18T10:00:37.496Z,44.85
2018-05-18T10:03:03.834Z,44.71
2018-05-18T10:05:30.128Z,45.96
2018-05-18T10:07:56.473Z,47.37
2018-05-18T10:10:22.803Z,47.05
2018-05-18T10:12:49.149Z,46.81
2018-05-18T10:15:15.510Z,46.34
2018-05-18T10:17:41.844Z,47.27
2018-05-18T10:20:08.245Z,48.98
2018-05-18T10:22:34.565Z,50.15
2018-05-18T10:25:00.882Z,49.66
2018-05-18T10:27:27.196Z,50.02
2018-05-18T10:29:53.522Z,50.51
2018-05-18T10:32:20.593Z,50.82
2018-05-18T10:34:46.943Z,50.95
2018-05-18T10:37:13.315Z,49.67
2018-05-18T10:39:39.690Z,49.71
2018-05-18T10:42:06.041Z,50.98
2018-05-18T10:44:32.450Z,51.86
2018-05-18T10:46:58.750Z,50.70
2018-05-18T10:49:26.053Z,49.50
2018-05-18T10:51:52.306Z,48.97
2018-05-18T10:54:19.401Z,47.90
2018-05-18T10:56:46.386Z,46.41
2018-05-18T10:59:12.690Z,44.70
2018-05-18T11:01:39.121Z,44.27
2018-05-18T11:04:05.470Z,43.78
2018-05-18T11:06:31.846Z,44.40
2018-05-18T11:08:58.957Z,45.51
2018-05-18T11:11:25.285Z,44.91
2018-05-18T11:13:51.731Z,45.06
2018-05-18T11:16:18.087Z,46.25
2018-05-18T11:18:45.179Z,44.99
2018-05-18T11:21:11.513Z,44.90
2018-05-18T11:23:37.958Z,46.77
2018-05-18T11:26:04.299Z,45.02
2018-05-18T11:28:30.621Z,44.28
2018-05-18T11:30:56.960Z,45.19
2018-05-18T11:33:23.303Z,43.46
2018-05-18T11:35:49.733Z,43.00
2018-05-18T11:38:17.024Z,42.65
2018-05-18T11:40:44.135Z,43.65
2018-05-18T11:43:10.462Z,44.89
2018-05-18T11:45:36.838Z,44.72
2018-05-18T11:48:03.889Z,47.17
2018-05-18T11:50:31.084Z,47.16
2018-05-18T11:52:57.429Z,45.16
2018-05-18T11:55:23.826Z,45.26
2018-05-18T11:57:50.193Z,43.90
2018-05-18T12:00:16.577Z,42.62
2018-05-18T12:02:43.603Z,43.96
2018-05-18T12:05:09.973Z,42.29
2018-05-18T12:07:36.330Z,41.46
2018-05-18T12:10:02.783Z,42.37
2018-05-18T12:12:29.135Z,44.36
2018-05-18T12:14:55.450Z,44.58
2018-05-18T12:17:21.764Z,46.94
2018-05-18T12:19:48.219Z,44.29
2018-05-18T12:22:14.588Z,42.71
2018-05-18T12:24:41.641Z,42.26
2018-05-18T12:27:08.756Z,44.22
2018-05-18T12:29:35.143Z,44.21
2018-05-18T12:32:01.438Z,44.09
2018-05-18T12:34:27.825Z,44.09
2018-05-18T12:36:54.170Z,41.50
2018-05-18T12:39:20.560Z,37.89
2018-05-18T12:41:46.883Z,36.11
2018-05-18T12:44:13.212Z,35.30
2018-05-18T12:46:40.323Z,34.46
2018-05-18T12:49:06.699Z,33.02
2018-05-18T12:51:33.035Z,33.31
2018-05-18T12:53:59.406Z,35.90
2018-05-18T12:56:25.729Z,37.79
2018-05-18T12:58:52.021Z,41.01
2018-05-18T13:01:19.089Z,41.54
2018-05-18T13:03:45.435Z,41.14
2018-05-18T13:06:11.747Z,43.67
2018-05-18T13:08:38.089Z,43.84
2018-05-18T13:11:04.534Z,43.51
2018-05-18T13:13:30.881Z,43.48
2018-05-18T13:15:57.216Z,45.47
2018-05-18T13:18:23.526Z,44.03
2018-05-18T13:20:49.881Z,39.41
2018-05-18T13:23:16.209Z,40.38
2018-05-18T13:25:42.558Z,39.46
2018-05-18T13:28:08.902Z,37.93
2018-05-18T13:30:35.994Z,36.51
2018-05-18T13:33:02.492Z,35.28
2018-05-18T13:35:29.792Z,32.24
2018-05-18T13:37:56.169Z,34.58
2018-05-18T13:40:23.339Z,38.28
2018-05-18T13:42:49.701Z,38.57
2018-05-18T13:45:16.471Z,40.54
2018-05-18T13:47:42.789Z,41.59
2018-05-18T13:50:09.141Z,41.69
2018-05-18T13:52:36.460Z,43.60
2018-05-18T13:55:05.267Z,41.68
2018-05-18T13:57:31.718Z,41.22
2018-05-18T13:59:58.059Z,41.39
2018-05-18T14:02:24.441Z,40.84
2018-05-18T14:04:50.761Z,40.96
2018-05-18T14:07:17.169Z,40.72
2018-05-18T14:09:43.532Z,40.13
2018-05-18T14:12:09.899Z,38.18
2018-05-18T14:14:36.263Z,35.05
2018-05-18T14:17:03.336Z,36.20
2018-05-18T14:19:29.678Z,37.84
2018-05-18T14:21:56.041Z,38.11
2018-05-18T14:24:23.118Z,35.14
2018-05-18T14:26:50.207Z,33.21
2018-05-18T14:29:16.554Z,34.52
2018-05-18T14:31:42.888Z,37.14
2018-05-18T14:34:09.223Z,37.65
2018-05-18T14:36:35.556Z,39.30
2018-05-18T14:39:01.918Z,40.41
2018-05-18T14:41:29.040Z,39.77
2018-05-18T14:43:55.427Z,38.83
2018-05-18T14:46:21.806Z,37.84
2018-05-18T14:48:48.138Z,31.11
2018-05-18T14:51:14.644Z,26.21
2018-05-18T14:53:40.892Z,25.33
2018-05-18T14:56:08.073Z,26.92
2018-05-18T14:58:34.460Z,32.01
2018-05-18T15:01:01.516Z,32.78
2018-05-18T15:03:27.891Z,29.78
2018-05-18T15:05:54.251Z,32.41
2018-05-18T15:08:20.609Z,34.69
2018-05-18T15:10:46.994Z,38.36
2018-05-18T15:13:14.238Z,40.90
2018-05-18T15:15:40.580Z,42.82
2018-05-18T15:18:07.619Z,42.04
2018-05-18T15:20:33.956Z,39.55
2018-05-18T15:23:00.332Z,38.83
2018-05-18T15:25:26.723Z,38.29
2018-05-18T15:27:54.168Z,39.05
2018-05-18T15:30:20.608Z,39.77
2018-05-18T15:32:46.984Z,41.23
2018-05-18T15:35:13.334Z,41.72
2018-05-18T15:37:39.701Z,41.38
2018-05-18T15:40:05.981Z,41.33
2018-05-18T15:42:32.408Z,42.91
2018-05-18T15:44:58.830Z,40.73
2018-05-18T15:47:25.208Z,34.37
2018-05-18T15:49:51.597Z,34.84
2018-05-18T15:52:17.926Z,37.75
2018-05-18T15:54:44.260Z,40.05
2018-05-18T15:57:11.566Z,42.86
2018-05-18T15:59:37.974Z,43.78
2018-05-18T16:02:04.483Z,45.06
2018-05-18T16:04:31.008Z,44.83
2018-05-18T16:06:58.435Z,38.97
2018-05-18T16:09:25.753Z,35.18
2018-05-18T16:11:52.074Z,31.31
2018-05-18T16:14:18.521Z,30.10
2018-05-18T16:16:44.948Z,29.26
2018-05-18T16:19:12.683Z,25.93
2018-05-18T16:21:39.937Z,27.26
2018-05-18T16:24:06.488Z,30.67
2018-05-18T16:26:32.890Z,34.69
2018-05-18T16:28:59.387Z,38.97
2018-05-18T16:31:25.961Z,39.83
2018-05-18T16:33:53.202Z,41.06
2018-05-18T16:36:19.676Z,41.55
2018-05-18T16:38:46.166Z,42.66
2018-05-18T16:41:12.541Z,45.18
2018-05-18T16:43:39.012Z,45.93
2018-05-18T16:46:05.395Z,46.01
2018-05-18T16:48:32.579Z,46.07
2018-05-18T16:50:59.133Z,45.83
2018-05-18T16:53:25.532Z,45.27
2018-05-18T16:55:51.994Z,46.75
2018-05-18T16:58:19.115Z,48.10
2018-05-18T17:00:45.446Z,48.73
2018-05-18T17:03:11.924Z,48.80
2018-05-18T17:05:38.404Z,48.19
2018-05-18T17:08:04.880Z,47.44
2018-05-18T17:10:31.370Z,48.70
2018-05-18T17:12:57.832Z,49.90
2018-05-18T17:15:24.263Z,49.78
2018-05-18T17:17:50.635Z,50.30
2018-05-18T17:20:17.069Z,51.06
2018-05-18T17:22:43.443Z,51.95
2018-05-18T17:25:09.897Z,51.59
2018-05-18T17:27:36.909Z,51.45
2018-05-18T17:30:04.131Z,51.76
2018-05-18T17:32:30.797Z,52.31
2018-05-18T17:34:57.966Z,51.96
2018-05-18T17:37:24.520Z,51.71
2018-05-18T17:39:51.217Z,51.47
2018-05-18T17:42:18.548Z,51.70
2018-05-18T17:44:44.962Z,52.21
2018-05-18T17:47:11.567Z,53.38
2018-05-18T17:49:37.954Z,53.14
2018-05-18T17:52:04.332Z,53.52
2018-05-18T17:54:30.839Z,53.21
2018-05-18T17:56:57.244Z,53.24
2018-05-18T17:59:23.671Z,53.60
2018-05-18T18:01:50.069Z,53.67
2018-05-18T18:04:16.425Z,53.71
2018-05-18T18:06:42.878Z,54.16
2018-05-18T18:09:09.310Z,54.74
2018-05-18T18:11:35.975Z,54.55
2018-05-18T18:14:03.369Z,54.07
2018-05-18T18:16:29.818Z,54.60
2018-05-18T18:18:56.257Z,54.61
2018-05-18T18:21:22.772Z,55.05
2018-05-18T18:23:49.160Z,55.27
2018-05-18T18:26:15.656Z,55.28
2018-05-18T18:28:42.108Z,55.38
2018-05-18T18:31:08.539Z,55.96
2018-05-18T18:33:34.876Z,56.01
2018-05-18T18:36:01.434Z,55.47
2018-05-18T18:38:27.868Z,55.52
2018-05-18T18:41:01.242Z,56.03
2018-05-18T18:43:27.764Z,56.08
2018-05-18T18:45:54.264Z,56.13
2018-05-18T18:48:20.767Z,55.92
2018-05-18T18:50:47.893Z,55.96
2018-05-18T18:53:14.283Z,56.06
2018-05-18T18:55:40.756Z,55.78
2018-05-18T18:58:07.149Z,56.44
2018-05-18T19:00:34.384Z,56.31
2018-05-18T19:03:01.648Z,56.47
2018-05-18T19:05:28.058Z,57.04
2018-05-18T19:07:54.622Z,57.26
2018-05-18T19:10:21.131Z,57.30
2018-05-18T19:12:47.761Z,57.19
2018-05-18T19:15:14.329Z,56.77
2018-05-18T19:17:40.828Z,57.33
2018-05-18T19:20:07.345Z,56.45
2018-05-18T19:22:33.778Z,56.73
2018-05-18T19:25:00.185Z,56.50
2018-05-18T19:27:26.683Z,56.27
2018-05-18T19:29:54.029Z,55.94
2018-05-18T19:32:20.471Z,56.31
2018-05-18T19:34:46.950Z,57.15
2018-05-18T19:37:13.284Z,57.39
2018-05-18T19:39:39.692Z,56.83
2018-05-18T19:42:06.757Z,56.34
2018-05-18T19:44:33.136Z,56.28
2018-05-18T19:46:59.542Z,56.30
2018-05-18T19:49:25.919Z,56.59
2018-05-18T19:51:52.245Z,56.88
2018-05-18T19:54:18.655Z,57.22
2018-05-18T19:56:45.163Z,57.73
2018-05-18T19:59:11.509Z,58.68
2018-05-18T20:01:37.844Z,59.81
2018-05-18T20:04:04.169Z,60.51
2018-05-18T20:06:30.505Z,60.17
2018-05-18T20:08:56.819Z,60.12
2018-05-18T20:11:23.145Z,60.45
2018-05-18T20:13:49.516Z,61.55
2018-05-18T20:16:15.854Z,61.47
2018-05-18T20:18:42.334Z,61.83
2018-05-18T20:21:08.723Z,61.87
2018-05-18T20:23:35.047Z,61.93
2018-05-18T20:26:02.805Z,61.98
2018-05-18T20:28:29.076Z,62.54
2018-05-18T20:30:56.139Z,62.79
2018-05-18T20:33:22.451Z,63.26
2018-05-18T20:38:47.264Z,64.89
2018-05-18T20:41:14.301Z,65.32
2018-05-18T20:43:40.559Z,65.37
2018-05-18T20:46:06.865Z,65.09
2018-05-18T20:48:33.201Z,65.01
2018-05-18T20:51:00.242Z,64.00
2018-05-18T20:53:26.523Z,63.84
2018-05-18T20:55:52.838Z,62.75
2018-05-18T20:58:19.161Z,62.54
2018-05-18T21:00:45.511Z,61.80
2018-05-18T21:03:11.802Z,61.34
2018-05-18T21:05:38.123Z,60.85
2018-05-18T21:08:04.495Z,60.73
2018-05-18T21:10:30.853Z,60.31
2018-05-18T21:12:57.111Z,59.60
2018-05-18T21:15:23.418Z,59.91
2018-05-18T21:17:49.736Z,59.41
2018-05-18T21:20:16.053Z,59.16
2018-05-18T21:22:42.366Z,59.11
2018-05-18T21:25:09.439Z,58.47
2018-05-18T21:27:35.696Z,57.42
2018-05-18T21:30:01.994Z,57.31
2018-05-18T21:32:28.263Z,57.04
2018-05-18T21:34:54.589Z,57.40
2018-05-18T21:37:20.863Z,57.48
2018-05-18T21:39:47.909Z,57.49
2018-05-18T21:42:14.955Z,57.72
2018-05-18T21:44:42.014Z,58.33
2018-05-18T21:47:09.051Z,58.94
2018-05-18T21:49:36.150Z,59.18
2018-05-18T21:52:02.465Z,59.13
2018-05-18T21:54:28.742Z,59.68
2018-05-18T21:56:55.034Z,59.62
2018-05-18T21:59:21.405Z,59.43
2018-05-18T22:01:48.370Z,58.47
2018-05-18T22:04:15.381Z,58.27
2018-05-18T22:06:41.702Z,58.80
2018-05-18T22:09:07.950Z,59.06
2018-05-18T22:11:34.259Z,58.56
2018-05-18T22:14:00.579Z,58.16
2018-05-18T22:16:26.912Z,57.88
2018-05-18T22:18:53.195Z,58.47
2018-05-18T22:21:20.241Z,58.44
2018-05-18T22:23:47.259Z,58.30
2018-05-18T22:26:13.528Z,58.33
2018-05-18T22:28:40.590Z,58.05
2018-05-18T22:31:06.894Z,58.40
2018-05-18T22:33:33.131Z,58.66
2018-05-18T22:36:00.149Z,58.40
2018-05-18T22:38:26.383Z,58.27
2018-05-18T22:40:52.704Z,58.16
2018-05-18T22:43:19.006Z,58.18
2018-05-18T22:45:45.320Z,58.24
2018-05-18T22:48:12.076Z,58.27
2018-05-18T22:50:38.404Z,57.97
2018-05-18T22:53:04.717Z,57.88
2018-05-18T22:55:31.014Z,57.95
2018-05-18T22:57:57.284Z,57.19
2018-05-18T23:00:25.442Z,57.20
2018-05-18T23:02:52.471Z,57.35
2018-05-18T23:05:18.766Z,57.40
2018-05-18T23:07:45.130Z,57.27
2018-05-18T23:10:11.429Z,57.39
2018-05-18T23:12:37.743Z,57.47
2018-05-18T23:15:04.054Z,57.37
2018-05-18T23:17:30.386Z,57.43
2018-05-18T23:19:56.680Z,57.18
2018-05-18T23:22:23.012Z,57.75
2018-05-18T23:24:49.276Z,57.99
2018-05-18T23:27:16.344Z,57.95
2018-05-18T23:29:42.629Z,57.54
2018-05-18T23:32:08.957Z,56.89
2018-05-18T23:34:35.241Z,57.01
2018-05-18T23:37:01.573Z,57.49
2018-05-18T23:39:27.886Z,57.96
2018-05-18T23:41:54.210Z,58.66
2018-05-18T23:44:20.547Z,59.15
2018-05-18T23:46:46.892Z,59.89
2018-05-18T23:49:13.218Z,60.00
2018-05-18T23:51:39.535Z,60.62
2018-05-18T23:54:05.826Z,60.73
2018-05-18T23:56:32.155Z,60.79
2018-05-18T23:58:58.468Z,60.36
